Terminal Aerodrome Forecast
Issued by NWS

Current Version | Previous Version | Graphics & Text | Print | Product List | Glossary On
Versions: 1 2 3 4 5 6 7 8 9 10 11 12 13 14 15 16 17 18 19 20
000
FTUS41 KPBZ 302005 AAA
TAFMGW
TAF AMD
KMGW 302005Z 3020/0118 36005KT P6SM -SHRA BKN035
      TEMPO 3020/3021 4SM -TSRA BKN035CB
     FM010000 35003KT P6SM -SHRA OVC025
     FM010600 05003KT P6SM BKN020=

USA.gov is the U.S. government's official web portal to all federal, state and local government web resources and services.